Time;durP1;ratioP1;P1;durP2;ratioP2;P2;SDS_P1;SDS_P2;PMS_P1;PMS_P2;Temp;Humidity;BMP_temperature;BMP_pressure;BME280_temperature;BME280_humidity;BME280_pressure;Samples;Min_cycle;Max_cycle;Signal;HPM_P1;HPM_P2
2022/09/11 06:28:37;;;;;;;14.70;13.60;;;31.70;99.90;;;;;;5010092;23;20496;-84
2022/09/11 06:31:18;;;;;;;15.43;14.43;;;32.10;99.90;;;;;;4883131;29;20028;-85
2022/09/11 06:33:46;;;;;;;14.98;13.90;;;32.20;99.90;;;;;;4884654;29;20035;-85
2022/09/11 06:36:16;;;;;;;14.90;13.80;;;32.20;99.90;;;;;;4868589;29;20112;-83
2022/09/11 06:38:43;;;;;;;14.77;13.77;;;32.20;99.90;;;;;;4868730;29;20024;-86
2022/09/11 06:41:15;;;;;;;14.95;14.05;;;32.10;99.90;;;;;;4869126;29;20032;-86
2022/09/11 06:43:43;;;;;;;15.48;14.02;;;32.00;99.90;;;;;;4868702;29;20044;-83
2022/09/11 06:46:14;;;;;;;14.38;13.57;;;32.20;99.90;;;;;;4883696;29;20048;-84
2022/09/11 06:48:43;;;;;;;15.32;14.32;;;32.10;99.90;;;;;;4868926;29;20128;-87
2022/09/11 06:53:47;;;;;;;14.65;13.75;;;32.30;99.90;;;;;;4881961;29;20409;-91
2022/09/11 06:56:17;;;;;;;14.82;13.70;;;32.00;99.90;;;;;;4865980;29;20037;-91
2022/09/11 06:58:45;;;;;;;14.73;13.73;;;32.40;99.90;;;;;;4850757;29;20025;-91
2022/09/11 07:01:15;;;;;;;14.65;13.85;;;32.30;99.90;;;;;;4865967;29;20487;-93
2022/09/11 07:03:48;;;;;;;15.95;14.75;;;32.30;99.90;;;;;;4850995;29;20514;-90
2022/09/11 07:06:21;;;;;;;14.85;14.00;;;32.90;99.90;;;;;;4865670;29;20041;-89
2022/09/11 07:09:01;;;;;;;15.13;14.20;;;32.50;99.90;;;;;;4865874;29;20119;-91
2022/09/11 07:11:45;;;;;;;14.77;13.90;;;32.10;99.90;;;;;;4852229;29;20439;-93
2022/09/11 07:14:13;;;;;;;15.25;14.10;;;32.50;99.90;;;;;;4865902;29;20048;-92
2022/09/11 07:16:42;;;;;;;15.38;14.25;;;32.70;99.90;;;;;;4851435;29;20036;-92
2022/09/11 07:19:34;;;;;;;15.32;14.27;;;32.80;99.90;;;;;;4866047;29;20040;-92
2022/09/11 07:22:02;;;;;;;15.50;14.32;;;32.80;99.90;;;;;;4865398;29;20037;-92
2022/09/11 07:40:59;;;;;;;15.55;14.27;;;31.80;99.90;;;;;;5697445;23;20139;-92
2022/09/11 07:43:26;;;;;;;15.45;14.35;;;31.50;99.90;;;;;;4899216;29;20480;-79
2022/09/11 07:45:54;;;;;;;15.75;14.75;;;31.00;99.90;;;;;;4898938;29;20033;-87
2022/09/11 07:48:21;;;;;;;15.65;14.52;;;30.80;99.90;;;;;;4883100;29;20035;-86
2022/09/11 07:51:03;;;;;;;15.32;14.40;;;30.80;99.90;;;;;;4864517;29;20468;-89
2022/09/11 07:53:57;;;;;;;14.73;13.73;;;31.00;99.90;;;;;;4864449;29;20514;-86
2022/09/11 07:56:26;;;;;;;14.55;13.60;;;31.00;99.90;;;;;;4826917;29;20046;-85
2022/09/11 07:58:55;;;;;;;14.88;13.88;;;31.20;99.90;;;;;;4826914;29;20532;-87
2022/09/11 08:01:24;;;;;;;15.38;14.07;;;31.40;99.90;;;;;;4826706;29;20082;-86
2022/09/11 08:03:59;;;;;;;15.43;14.32;;;31.50;99.90;;;;;;4841371;29;20038;-83
2022/09/11 08:06:29;;;;;;;15.48;14.40;;;32.00;99.90;;;;;;4841617;29;20037;-84
2022/09/11 08:09:00;;;;;;;15.82;14.60;;;31.80;99.90;;;;;;4826083;29;20053;-88
2022/09/11 08:11:33;;;;;;;14.88;14.00;;;31.60;99.90;;;;;;4841302;29;20181;-84
2022/09/11 08:14:00;;;;;;;15.50;14.40;;;32.00;99.90;;;;;;4826223;29;20553;-79
2022/09/11 08:16:28;;;;;;;15.88;14.52;;;32.00;99.90;;;;;;4841242;29;20041;-79
2022/09/11 08:18:59;;;;;;;15.60;14.60;;;32.10;99.90;;;;;;4841326;29;20038;-80
2022/09/11 08:21:26;;;;;;;15.85;14.80;;;32.10;99.90;;;;;;4825993;29;20038;-81
2022/09/11 08:23:53;;;;;;;15.45;14.55;;;31.80;99.90;;;;;;4841046;29;20041;-78
2022/09/11 08:26:23;;;;;;;15.98;14.70;;;31.90;99.90;;;;;;4841138;29;20572;-81
2022/09/11 08:28:54;;;;;;;15.13;14.23;;;31.90;99.90;;;;;;4825675;29;20642;-82
2022/09/11 08:31:26;;;;;;;16.05;14.50;;;32.10;99.90;;;;;;4840883;29;20033;-82
2022/09/11 08:33:55;;;;;;;15.40;14.07;;;32.20;99.90;;;;;;4873692;29;20073;-82
2022/09/11 08:36:23;;;;;;;15.13;13.98;;;32.40;99.90;;;;;;4880076;29;20039;-80
2022/09/11 08:38:52;;;;;;;14.90;13.90;;;32.30;99.90;;;;;;4879771;29;20037;-78
2022/09/11 08:41:30;;;;;;;15.05;14.00;;;32.10;99.90;;;;;;4879625;29;20052;-78
2022/09/11 08:44:10;;;;;;;15.00;13.80;;;31.80;99.90;;;;;;4878830;29;20444;-88
2022/09/11 08:46:58;;;;;;;14.70;13.77;;;31.70;99.90;;;;;;4881904;29;20049;-90
2022/09/11 08:49:45;;;;;;;14.82;13.73;;;31.60;99.90;;;;;;4848741;29;20120;-91
2022/09/11 08:52:15;;;;;;;14.98;14.00;;;31.50;99.90;;;;;;4860344;29;20030;-91
2022/09/11 08:54:46;;;;;;;15.27;14.27;;;31.80;99.90;;;;;;4845142;29;20061;-89
2022/09/11 08:57:21;;;;;;;15.02;14.18;;;31.90;99.90;;;;;;4845631;29;20033;-87
2022/09/11 08:59:55;;;;;;;15.23;14.20;;;32.10;99.90;;;;;;4845516;29;20033;-88
2022/09/11 09:02:49;;;;;;;14.43;13.43;;;31.60;99.90;;;;;;4845486;29;20128;-88
2022/09/11 09:05:31;;;;;;;14.65;13.65;;;31.60;99.90;;;;;;4860964;29;20045;-86
2022/09/11 09:08:20;;;;;;;15.75;14.18;;;31.60;99.90;;;;;;4860790;29;20026;-87
2022/09/11 09:10:56;;;;;;;15.38;14.18;;;31.60;99.90;;;;;;4860488;29;20044;-87
2022/09/11 09:13:48;;;;;;;14.95;14.00;;;31.50;99.90;;;;;;4845674;29;20037;-88
2022/09/11 09:16:44;;;;;;;14.80;13.98;;;31.40;99.90;;;;;;4845003;29;20069;-87
2022/09/11 09:19:25;;;;;;;15.40;14.30;;;31.60;99.90;;;;;;4844350;29;20076;-89
2022/09/11 09:22:02;;;;;;;15.30;14.35;;;31.40;99.90;;;;;;4830303;29;20052;-87
2022/09/11 09:24:38;;;;;;;15.38;14.43;;;31.30;99.90;;;;;;4845606;29;20037;-87
2022/09/11 09:27:06;;;;;;;15.18;14.20;;;30.80;99.90;;;;;;4845247;29;20029;-87
2022/09/11 09:29:37;;;;;;;15.80;14.52;;;30.70;99.90;;;;;;4845083;29;20483;-87
2022/09/11 09:32:12;;;;;;;14.80;14.00;;;30.80;99.90;;;;;;4845568;29;20061;-87
2022/09/11 09:34:41;;;;;;;14.95;13.95;;;30.30;99.90;;;;;;4845264;29;20038;-87
2022/09/11 09:37:26;;;;;;;15.75;14.00;;;30.30;99.90;;;;;;4845301;29;20029;-88
2022/09/11 09:39:53;;;;;;;15.10;13.95;;;30.60;99.90;;;;;;4845212;29;20029;-88
2022/09/11 09:42:46;;;;;;;14.63;13.63;;;30.90;99.90;;;;;;4845005;29;20052;-87
2022/09/11 09:45:26;;;;;;;15.40;14.07;;;31.10;99.90;;;;;;4820678;29;20057;-88
2022/09/11 09:47:52;;;;;;;15.98;14.50;;;31.30;99.90;;;;;;4860331;29;20097;-88
2022/09/11 09:50:31;;;;;;;15.63;14.15;;;31.10;99.90;;;;;;4844973;29;20030;-87
2022/09/11 09:53:30;;;;;;;15.65;14.55;;;31.10;99.90;;;;;;4845020;29;20052;-87
2022/09/11 09:56:03;;;;;;;15.07;14.18;;;30.50;99.90;;;;;;4860399;29;20034;-88
2022/09/11 09:58:46;;;;;;;16.33;14.95;;;30.10;99.90;;;;;;4844934;29;20041;-87
2022/09/11 10:01:46;;;;;;;15.68;14.48;;;30.10;99.90;;;;;;4828660;29;20053;-87
2022/09/11 10:04:22;;;;;;;15.95;14.88;;;30.00;99.90;;;;;;4860382;29;20387;-87
2022/09/11 10:06:51;;;;;;;16.33;14.90;;;30.50;99.90;;;;;;4846639;29;20028;-87
2022/09/11 10:09:27;;;;;;;15.65;14.63;;;30.70;99.90;;;;;;4833641;29;20036;-87
2022/09/11 10:12:01;;;;;;;16.65;15.35;;;31.20;99.90;;;;;;4832494;29;20045;-87
2022/09/11 10:14:31;;;;;;;17.40;15.13;;;31.60;99.90;;;;;;4848135;29;20130;-88
2022/09/11 10:17:00;;;;;;;15.95;14.52;;;31.80;99.90;;;;;;4863480;29;20495;-88
2022/09/11 10:19:40;;;;;;;15.88;14.50;;;31.60;99.90;;;;;;4863328;29;20093;-87
2022/09/11 10:22:25;;;;;;;15.90;14.80;;;31.20;99.90;;;;;;4848171;29;20105;-88
2022/09/11 10:25:09;;;;;;;15.25;14.25;;;31.10;99.90;;;;;;4863293;29;20042;-87
2022/09/11 10:27:55;;;;;;;15.73;14.60;;;31.50;99.90;;;;;;4847982;29;20066;-86
2022/09/11 10:30:52;;;;;;;15.35;14.50;;;31.60;99.90;;;;;;4863205;29;20030;-88
2022/09/11 10:33:18;;;;;;;16.08;14.70;;;31.70;99.90;;;;;;4847022;29;20073;-88
2022/09/11 10:35:54;;;;;;;15.60;14.45;;;31.70;99.90;;;;;;4863047;29;20029;-88
2022/09/11 10:38:27;;;;;;;15.75;14.55;;;31.30;99.90;;;;;;4847757;29;20044;-88
2022/09/11 10:41:04;;;;;;;15.23;14.32;;;31.40;99.90;;;;;;4847502;29;20074;-88
2022/09/11 10:43:41;;;;;;;15.27;14.30;;;31.30;99.90;;;;;;4863146;29;20056;-88
2022/09/11 10:46:24;;;;;;;15.75;14.55;;;31.30;99.90;;;;;;4847530;29;20086;-87
2022/09/11 10:49:04;;;;;;;15.05;14.25;;;31.10;99.90;;;;;;4847520;29;20136;-88
2022/09/11 10:51:33;;;;;;;15.32;14.45;;;31.30;99.90;;;;;;4862796;29;20046;-87
2022/09/11 10:54:12;;;;;;;15.77;14.63;;;31.00;99.90;;;;;;4862616;29;20143;-87
2022/09/11 10:57:15;;;;;;;15.38;14.38;;;31.00;99.90;;;;;;4863157;29;20157;-87
2022/09/11 11:00:16;;;;;;;15.15;14.35;;;31.20;99.90;;;;;;4802008;29;20488;-88
2022/09/11 11:02:59;;;;;;;15.48;14.32;;;31.20;99.90;;;;;;4837970;29;20081;-88
2022/09/11 11:05:31;;;;;;;16.00;14.70;;;31.20;99.90;;;;;;4847289;29;20053;-87
2022/09/11 11:08:13;;;;;;;15.40;14.40;;;31.60;99.90;;;;;;4862472;29;20034;-88
2022/09/11 11:11:18;;;;;;;15.50;14.40;;;31.40;99.90;;;;;;4862461;29;20041;-88
2022/09/11 11:14:03;;;;;;;15.45;14.55;;;31.50;99.90;;;;;;4862634;29;20108;-88
2022/09/11 11:16:56;;;;;;;16.08;14.75;;;31.60;99.90;;;;;;4862302;29;20041;-87
2022/09/11 11:19:53;;;;;;;15.43;14.52;;;31.60;99.90;;;;;;4847214;29;20086;-88
2022/09/11 11:22:35;;;;;;;15.52;14.63;;;31.70;99.90;;;;;;4862527;29;20128;-88
2022/09/11 11:25:18;;;;;;;15.70;14.80;;;31.60;99.90;;;;;;4862497;29;20041;-87
2022/09/11 11:28:10;;;;;;;15.75;14.85;;;31.40;99.90;;;;;;4846920;29;20030;-86
2022/09/11 11:30:44;;;;;;;16.17;15.00;;;31.50;99.90;;;;;;4846802;29;20129;-87
2022/09/11 11:33:16;;;;;;;;;;;31.70;99.90;;;;;;4862616;29;20128;-87
2022/09/11 11:36:09;;;;;;;15.35;14.50;;;31.80;99.90;;;;;;4862122;29;19968;-88
